sensor_id;sensor_type;location;lat;lon;timestamp;P1;durP1;ratioP1;P2;durP2;ratioP2
4391;SDS011;2210;51.938;8.488;2023-04-03T00:01:51;1.80;;;1.10;;
4391;SDS011;2210;51.938;8.488;2023-04-03T00:05:52;5.17;;;1.43;;
4391;SDS011;2210;51.938;8.488;2023-04-03T00:09:52;2.80;;;1.30;;
4391;SDS011;2210;51.938;8.488;2023-04-03T00:13:52;2.13;;;1.27;;
4391;SDS011;2210;51.938;8.488;2023-04-03T00:17:59;1.37;;;1.13;;
4391;SDS011;2210;51.938;8.488;2023-04-03T00:22:02;2.90;;;1.50;;
4391;SDS011;2210;51.938;8.488;2023-04-03T00:26:02;6.73;;;1.20;;
4391;SDS011;2210;51.938;8.488;2023-04-03T00:30:03;1.50;;;0.80;;
4391;SDS011;2210;51.938;8.488;2023-04-03T00:34:06;2.00;;;1.23;;
4391;SDS011;2210;51.938;8.488;2023-04-03T00:38:10;1.70;;;1.10;;
4391;SDS011;2210;51.938;8.488;2023-04-03T00:42:13;2.43;;;1.27;;
4391;SDS011;2210;51.938;8.488;2023-04-03T00:46:13;3.10;;;1.00;;
4391;SDS011;2210;51.938;8.488;2023-04-03T00:50:14;4.97;;;1.70;;
4391;SDS011;2210;51.938;8.488;2023-04-03T00:54:14;2.30;;;1.40;;
4391;SDS011;2210;51.938;8.488;2023-04-03T00:58:15;1.63;;;1.03;;
4391;SDS011;2210;51.938;8.488;2023-04-03T01:02:20;1.77;;;1.13;;
4391;SDS011;2210;51.938;8.488;2023-04-03T01:06:27;2.40;;;1.50;;
4391;SDS011;2210;51.938;8.488;2023-04-03T01:10:34;1.17;;;1.07;;
4391;SDS011;2210;51.938;8.488;2023-04-03T01:14:35;2.03;;;1.40;;
4391;SDS011;2210;51.938;8.488;2023-04-03T01:18:39;1.63;;;1.17;;
4391;SDS011;2210;51.938;8.488;2023-04-03T01:22:45;5.80;;;1.97;;
4391;SDS011;2210;51.938;8.488;2023-04-03T01:26:56;2.07;;;1.00;;
4391;SDS011;2210;51.938;8.488;2023-04-03T01:35:15;3.60;;;1.17;;
4391;SDS011;2210;51.938;8.488;2023-04-03T01:39:15;2.07;;;1.23;;
4391;SDS011;2210;51.938;8.488;2023-04-03T01:43:15;2.30;;;1.23;;
4391;SDS011;2210;51.938;8.488;2023-04-03T01:47:16;1.30;;;1.20;;
4391;SDS011;2210;51.938;8.488;2023-04-03T01:51:16;3.20;;;1.00;;
4391;SDS011;2210;51.938;8.488;2023-04-03T01:55:19;3.03;;;1.33;;
4391;SDS011;2210;51.938;8.488;2023-04-03T01:59:20;2.80;;;1.70;;
4391;SDS011;2210;51.938;8.488;2023-04-03T02:03:20;4.60;;;1.40;;
4391;SDS011;2210;51.938;8.488;2023-04-03T02:07:20;1.52;;;1.10;;
4391;SDS011;2210;51.938;8.488;2023-04-03T02:11:21;2.20;;;1.20;;
4391;SDS011;2210;51.938;8.488;2023-04-03T02:15:21;1.90;;;1.30;;
4391;SDS011;2210;51.938;8.488;2023-04-03T02:19:27;3.50;;;1.33;;
4391;SDS011;2210;51.938;8.488;2023-04-03T02:23:28;4.63;;;1.50;;
4391;SDS011;2210;51.938;8.488;2023-04-03T02:27:31;2.87;;;1.37;;
4391;SDS011;2210;51.938;8.488;2023-04-03T02:31:31;2.60;;;1.07;;
4391;SDS011;2210;51.938;8.488;2023-04-03T02:35:38;5.30;;;1.00;;
4391;SDS011;2210;51.938;8.488;2023-04-03T02:39:38;2.73;;;1.10;;
4391;SDS011;2210;51.938;8.488;2023-04-03T02:43:41;1.90;;;1.00;;
4391;SDS011;2210;51.938;8.488;2023-04-03T02:47:42;2.60;;;1.30;;
4391;SDS011;2210;51.938;8.488;2023-04-03T02:51:42;2.97;;;1.20;;
4391;SDS011;2210;51.938;8.488;2023-04-03T02:55:42;4.38;;;1.38;;
4391;SDS011;2210;51.938;8.488;2023-04-03T02:59:45;3.17;;;1.37;;
4391;SDS011;2210;51.938;8.488;2023-04-03T03:03:52;2.30;;;1.27;;
4391;SDS011;2210;51.938;8.488;2023-04-03T03:07:52;4.13;;;1.20;;
4391;SDS011;2210;51.938;8.488;2023-04-03T03:11:56;2.00;;;1.13;;
4391;SDS011;2210;51.938;8.488;2023-04-03T03:15:57;1.07;;;0.83;;
4391;SDS011;2210;51.938;8.488;2023-04-03T03:20:06;3.63;;;1.37;;
4391;SDS011;2210;51.938;8.488;2023-04-03T03:24:07;1.93;;;1.00;;
4391;SDS011;2210;51.938;8.488;2023-04-03T03:28:08;1.70;;;1.13;;
4391;SDS011;2210;51.938;8.488;2023-04-03T03:32:08;2.53;;;1.43;;
4391;SDS011;2210;51.938;8.488;2023-04-03T03:36:08;5.07;;;2.70;;
4391;SDS011;2210;51.938;8.488;2023-04-03T03:40:09;2.70;;;1.40;;
4391;SDS011;2210;51.938;8.488;2023-04-03T03:44:11;9.00;;;1.40;;
4391;SDS011;2210;51.938;8.488;2023-04-03T03:48:12;1.45;;;1.10;;
4391;SDS011;2210;51.938;8.488;2023-04-03T03:52:15;3.22;;;1.15;;
4391;SDS011;2210;51.938;8.488;2023-04-03T03:56:16;3.67;;;1.43;;
4391;SDS011;2210;51.938;8.488;2023-04-03T04:00:16;2.43;;;1.47;;
4391;SDS011;2210;51.938;8.488;2023-04-03T04:04:16;1.77;;;1.13;;
4391;SDS011;2210;51.938;8.488;2023-04-03T04:08:17;2.30;;;1.33;;
4391;SDS011;2210;51.938;8.488;2023-04-03T04:12:20;5.50;;;1.30;;
4391;SDS011;2210;51.938;8.488;2023-04-03T04:16:24;2.70;;;1.20;;
4391;SDS011;2210;51.938;8.488;2023-04-03T04:20:24;1.37;;;1.27;;
4391;SDS011;2210;51.938;8.488;2023-04-03T04:24:24;3.83;;;1.20;;
4391;SDS011;2210;51.938;8.488;2023-04-03T04:28:28;4.60;;;1.30;;
4391;SDS011;2210;51.938;8.488;2023-04-03T04:32:28;2.90;;;1.17;;
4391;SDS011;2210;51.938;8.488;2023-04-03T04:36:31;1.50;;;1.20;;
4391;SDS011;2210;51.938;8.488;2023-04-03T04:40:41;3.57;;;1.20;;
4391;SDS011;2210;51.938;8.488;2023-04-03T04:44:44;2.40;;;1.60;;
4391;SDS011;2210;51.938;8.488;2023-04-03T04:48:44;2.40;;;1.30;;
4391;SDS011;2210;51.938;8.488;2023-04-03T04:52:45;2.80;;;1.50;;
4391;SDS011;2210;51.938;8.488;2023-04-03T04:56:45;1.77;;;1.23;;
4391;SDS011;2210;51.938;8.488;2023-04-03T05:00:45;5.63;;;1.50;;
4391;SDS011;2210;51.938;8.488;2023-04-03T05:04:46;3.00;;;1.27;;
4391;SDS011;2210;51.938;8.488;2023-04-03T05:08:46;2.20;;;1.63;;
4391;SDS011;2210;51.938;8.488;2023-04-03T05:12:46;2.77;;;1.73;;
4391;SDS011;2210;51.938;8.488;2023-04-03T05:16:50;4.80;;;1.70;;
4391;SDS011;2210;51.938;8.488;2023-04-03T05:20:56;2.17;;;1.60;;
4391;SDS011;2210;51.938;8.488;2023-04-03T05:24:57;1.30;;;1.17;;
4391;SDS011;2210;51.938;8.488;2023-04-03T05:28:58;3.53;;;1.30;;
4391;SDS011;2210;51.938;8.488;2023-04-03T05:33:01;2.20;;;1.30;;
4391;SDS011;2210;51.938;8.488;2023-04-03T05:37:05;2.90;;;1.20;;
4391;SDS011;2210;51.938;8.488;2023-04-03T05:41:05;4.50;;;1.00;;
4391;SDS011;2210;51.938;8.488;2023-04-03T05:45:08;1.43;;;1.23;;
4391;SDS011;2210;51.938;8.488;2023-04-03T05:49:12;1.37;;;1.10;;
4391;SDS011;2210;51.938;8.488;2023-04-03T05:53:15;1.37;;;1.20;;
4391;SDS011;2210;51.938;8.488;2023-04-03T05:57:21;3.50;;;1.50;;
4391;SDS011;2210;51.938;8.488;2023-04-03T06:01:25;3.00;;;1.53;;
4391;SDS011;2210;51.938;8.488;2023-04-03T06:05:35;3.30;;;1.37;;
4391;SDS011;2210;51.938;8.488;2023-04-03T06:09:36;3.67;;;2.43;;
4391;SDS011;2210;51.938;8.488;2023-04-03T06:13:39;2.83;;;1.37;;
4391;SDS011;2210;51.938;8.488;2023-04-03T06:17:43;1.43;;;1.30;;
4391;SDS011;2210;51.938;8.488;2023-04-03T06:21:46;3.07;;;1.40;;
4391;SDS011;2210;51.938;8.488;2023-04-03T06:25:50;3.70;;;1.77;;
4391;SDS011;2210;51.938;8.488;2023-04-03T06:29:50;1.98;;;1.00;;
4391;SDS011;2210;51.938;8.488;2023-04-03T06:33:51;5.17;;;1.83;;
4391;SDS011;2210;51.938;8.488;2023-04-03T06:37:51;2.70;;;1.30;;
4391;SDS011;2210;51.938;8.488;2023-04-03T06:41:55;3.10;;;1.48;;
4391;SDS011;2210;51.938;8.488;2023-04-03T06:46:04;2.50;;;1.27;;
4391;SDS011;2210;51.938;8.488;2023-04-03T06:50:17;1.70;;;1.10;;
4391;SDS011;2210;51.938;8.488;2023-04-03T06:54:20;3.80;;;1.47;;
4391;SDS011;2210;51.938;8.488;2023-04-03T06:58:21;3.13;;;1.40;;
4391;SDS011;2210;51.938;8.488;2023-04-03T07:02:28;2.83;;;1.30;;
4391;SDS011;2210;51.938;8.488;2023-04-03T07:06:37;3.53;;;1.43;;
4391;SDS011;2210;51.938;8.488;2023-04-03T07:10:37;3.90;;;1.50;;
4391;SDS011;2210;51.938;8.488;2023-04-03T07:14:41;10.10;;;1.97;;
4391;SDS011;2210;51.938;8.488;2023-04-03T07:18:45;4.33;;;1.40;;
4391;SDS011;2210;51.938;8.488;2023-04-03T07:22:46;1.57;;;1.33;;
4391;SDS011;2210;51.938;8.488;2023-04-03T07:26:50;2.40;;;1.20;;
4391;SDS011;2210;51.938;8.488;2023-04-03T07:30:52;2.50;;;1.23;;
4391;SDS011;2210;51.938;8.488;2023-04-03T07:34:54;1.10;;;0.87;;
4391;SDS011;2210;51.938;8.488;2023-04-03T07:38:55;1.43;;;1.33;;
4391;SDS011;2210;51.938;8.488;2023-04-03T07:42:59;1.33;;;0.90;;
4391;SDS011;2210;51.938;8.488;2023-04-03T07:46:59;5.33;;;1.00;;
4391;SDS011;2210;51.938;8.488;2023-04-03T07:51:06;1.00;;;0.93;;
4391;SDS011;2210;51.938;8.488;2023-04-03T07:55:12;2.27;;;1.00;;
4391;SDS011;2210;51.938;8.488;2023-04-03T07:59:13;1.97;;;1.30;;
4391;SDS011;2210;51.938;8.488;2023-04-03T08:03:16;3.17;;;1.17;;
4391;SDS011;2210;51.938;8.488;2023-04-03T08:07:17;1.03;;;0.93;;
4391;SDS011;2210;51.938;8.488;2023-04-03T08:11:17;1.58;;;0.90;;
4391;SDS011;2210;51.938;8.488;2023-04-03T08:15:21;1.10;;;0.90;;
4391;SDS011;2210;51.938;8.488;2023-04-03T08:19:28;2.10;;;1.00;;
4391;SDS011;2210;51.938;8.488;2023-04-03T08:23:28;1.53;;;0.80;;
4391;SDS011;2210;51.938;8.488;2023-04-03T08:27:38;1.13;;;1.03;;
4391;SDS011;2210;51.938;8.488;2023-04-03T08:31:39;1.60;;;1.13;;
4391;SDS011;2210;51.938;8.488;2023-04-03T08:35:39;1.20;;;0.87;;
4391;SDS011;2210;51.938;8.488;2023-04-03T08:39:41;1.63;;;1.00;;
4391;SDS011;2210;51.938;8.488;2023-04-03T08:43:47;5.20;;;1.10;;
4391;SDS011;2210;51.938;8.488;2023-04-03T08:48:08;5.43;;;1.00;;
4391;SDS011;2210;51.938;8.488;2023-04-03T08:52:17;2.83;;;1.00;;
4391;SDS011;2210;51.938;8.488;2023-04-03T08:56:20;1.13;;;1.00;;
4391;SDS011;2210;51.938;8.488;2023-04-03T09:00:23;2.93;;;1.40;;
4391;SDS011;2210;51.938;8.488;2023-04-03T09:04:27;1.10;;;1.00;;
4391;SDS011;2210;51.938;8.488;2023-04-03T09:08:40;2.60;;;0.87;;
4391;SDS011;2210;51.938;8.488;2023-04-03T09:12:49;3.40;;;1.90;;
4391;SDS011;2210;51.938;8.488;2023-04-03T09:17:15;10.83;;;1.30;;
4391;SDS011;2210;51.938;8.488;2023-04-03T09:21:28;2.90;;;1.07;;
4391;SDS011;2210;51.938;8.488;2023-04-03T09:25:35;2.80;;;1.30;;
4391;SDS011;2210;51.938;8.488;2023-04-03T09:29:43;7.80;;;0.90;;
4391;SDS011;2210;51.938;8.488;2023-04-03T09:33:59;1.07;;;0.97;;
4391;SDS011;2210;51.938;8.488;2023-04-03T09:42:18;0.90;;;0.70;;
4391;SDS011;2210;51.938;8.488;2023-04-03T09:46:30;2.50;;;0.50;;
4391;SDS011;2210;51.938;8.488;2023-04-03T09:50:32;1.87;;;1.30;;
4391;SDS011;2210;51.938;8.488;2023-04-03T09:54:39;1.00;;;1.00;;
4391;SDS011;2210;51.938;8.488;2023-04-03T09:58:40;2.10;;;0.63;;
4391;SDS011;2210;51.938;8.488;2023-04-03T10:02:43;1.63;;;0.87;;
4391;SDS011;2210;51.938;8.488;2023-04-03T10:06:51;2.92;;;0.90;;
4391;SDS011;2210;51.938;8.488;2023-04-03T10:11:07;1.30;;;0.90;;
4391;SDS011;2210;51.938;8.488;2023-04-03T10:15:11;3.83;;;1.23;;
4391;SDS011;2210;51.938;8.488;2023-04-03T10:23:45;1.30;;;1.03;;
4391;SDS011;2210;51.938;8.488;2023-04-03T10:28:09;3.33;;;1.30;;
4391;SDS011;2210;51.938;8.488;2023-04-03T10:46:00;1.23;;;0.80;;
4391;SDS011;2210;51.938;8.488;2023-04-03T10:54:34;1.63;;;0.80;;
4391;SDS011;2210;51.938;8.488;2023-04-03T10:58:40;0.80;;;0.80;;
4391;SDS011;2210;51.938;8.488;2023-04-03T11:02:49;1.53;;;1.00;;
4391;SDS011;2210;51.938;8.488;2023-04-03T11:07:00;1.00;;;0.70;;
4391;SDS011;2210;51.938;8.488;2023-04-03T11:11:17;1.27;;;0.90;;
4391;SDS011;2210;51.938;8.488;2023-04-03T11:15:21;1.43;;;1.10;;
4391;SDS011;2210;51.938;8.488;2023-04-03T11:23:47;1.20;;;0.83;;
4391;SDS011;2210;51.938;8.488;2023-04-03T11:36:26;0.70;;;0.70;;
4391;SDS011;2210;51.938;8.488;2023-04-03T11:40:34;1.53;;;0.80;;
4391;SDS011;2210;51.938;8.488;2023-04-03T11:44:37;2.67;;;1.00;;
4391;SDS011;2210;51.938;8.488;2023-04-03T11:48:42;1.17;;;0.70;;
4391;SDS011;2210;51.938;8.488;2023-04-03T11:56:48;3.40;;;0.80;;
4391;SDS011;2210;51.938;8.488;2023-04-03T12:17:49;1.97;;;1.00;;
4391;SDS011;2210;51.938;8.488;2023-04-03T12:26:01;1.50;;;1.20;;
4391;SDS011;2210;51.938;8.488;2023-04-03T12:30:15;1.90;;;0.90;;
4391;SDS011;2210;51.938;8.488;2023-04-03T12:34:24;1.73;;;0.87;;
4391;SDS011;2210;51.938;8.488;2023-04-03T12:38:40;0.80;;;0.80;;
4391;SDS011;2210;51.938;8.488;2023-04-03T12:47:28;4.00;;;0.90;;
4391;SDS011;2210;51.938;8.488;2023-04-03T12:55:38;1.33;;;0.83;;
4391;SDS011;2210;51.938;8.488;2023-04-03T12:59:38;3.47;;;1.07;;
4391;SDS011;2210;51.938;8.488;2023-04-03T13:03:40;3.43;;;0.90;;
4391;SDS011;2210;51.938;8.488;2023-04-03T13:07:44;1.50;;;1.20;;
4391;SDS011;2210;51.938;8.488;2023-04-03T13:11:50;1.23;;;1.07;;
4391;SDS011;2210;51.938;8.488;2023-04-03T13:15:56;2.20;;;0.80;;
4391;SDS011;2210;51.938;8.488;2023-04-03T13:19:56;0.97;;;0.93;;
4391;SDS011;2210;51.938;8.488;2023-04-03T13:24:10;1.93;;;0.87;;
4391;SDS011;2210;51.938;8.488;2023-04-03T13:28:12;2.03;;;1.07;;
4391;SDS011;2210;51.938;8.488;2023-04-03T13:32:18;1.80;;;0.90;;
4391;SDS011;2210;51.938;8.488;2023-04-03T13:36:26;1.23;;;1.00;;
4391;SDS011;2210;51.938;8.488;2023-04-03T13:40:30;1.20;;;0.90;;
4391;SDS011;2210;51.938;8.488;2023-04-03T13:44:35;1.30;;;0.80;;
4391;SDS011;2210;51.938;8.488;2023-04-03T13:48:38;2.00;;;1.33;;
4391;SDS011;2210;51.938;8.488;2023-04-03T13:52:41;1.20;;;1.00;;
4391;SDS011;2210;51.938;8.488;2023-04-03T13:56:43;1.43;;;1.00;;
4391;SDS011;2210;51.938;8.488;2023-04-03T14:01:18;1.10;;;1.00;;
4391;SDS011;2210;51.938;8.488;2023-04-03T14:05:16;0.93;;;0.87;;
4391;SDS011;2210;51.938;8.488;2023-04-03T14:09:21;1.30;;;1.20;;
4391;SDS011;2210;51.938;8.488;2023-04-03T14:13:23;2.23;;;1.17;;
4391;SDS011;2210;51.938;8.488;2023-04-03T14:17:24;3.93;;;1.10;;
4391;SDS011;2210;51.938;8.488;2023-04-03T14:21:27;1.27;;;0.80;;
4391;SDS011;2210;51.938;8.488;2023-04-03T14:25:27;0.80;;;0.80;;
4391;SDS011;2210;51.938;8.488;2023-04-03T14:29:27;1.07;;;0.93;;
4391;SDS011;2210;51.938;8.488;2023-04-03T14:33:27;2.03;;;0.93;;
4391;SDS011;2210;51.938;8.488;2023-04-03T14:37:31;3.37;;;1.17;;
4391;SDS011;2210;51.938;8.488;2023-04-03T14:41:31;1.13;;;1.03;;
4391;SDS011;2210;51.938;8.488;2023-04-03T14:45:31;0.80;;;0.80;;
4391;SDS011;2210;51.938;8.488;2023-04-03T14:49:32;1.40;;;0.90;;
4391;SDS011;2210;51.938;8.488;2023-04-03T14:53:32;2.17;;;1.00;;
4391;SDS011;2210;51.938;8.488;2023-04-03T14:57:35;2.67;;;0.90;;
4391;SDS011;2210;51.938;8.488;2023-04-03T15:01:37;0.80;;;0.80;;
4391;SDS011;2210;51.938;8.488;2023-04-03T15:05:38;1.03;;;0.80;;
4391;SDS011;2210;51.938;8.488;2023-04-03T15:09:38;1.67;;;0.70;;
4391;SDS011;2210;51.938;8.488;2023-04-03T15:13:38;2.83;;;1.10;;
4391;SDS011;2210;51.938;8.488;2023-04-03T15:17:39;1.30;;;0.80;;
4391;SDS011;2210;51.938;8.488;2023-04-03T15:21:40;1.73;;;1.00;;
4391;SDS011;2210;51.938;8.488;2023-04-03T15:25:40;2.60;;;1.00;;
4391;SDS011;2210;51.938;8.488;2023-04-03T15:29:41;1.10;;;1.00;;
4391;SDS011;2210;51.938;8.488;2023-04-03T15:33:42;1.67;;;1.10;;
4391;SDS011;2210;51.938;8.488;2023-04-03T15:37:42;1.33;;;0.85;;
4391;SDS011;2210;51.938;8.488;2023-04-03T15:41:43;5.53;;;1.40;;
4391;SDS011;2210;51.938;8.488;2023-04-03T15:45:43;3.47;;;1.53;;
4391;SDS011;2210;51.938;8.488;2023-04-03T15:49:44;0.90;;;0.90;;
4391;SDS011;2210;51.938;8.488;2023-04-03T15:53:45;1.33;;;1.23;;
4391;SDS011;2210;51.938;8.488;2023-04-03T15:57:45;1.13;;;1.00;;
4391;SDS011;2210;51.938;8.488;2023-04-03T16:01:45;4.63;;;1.02;;
4391;SDS011;2210;51.938;8.488;2023-04-03T16:05:46;1.77;;;1.20;;
4391;SDS011;2210;51.938;8.488;2023-04-03T16:09:47;1.47;;;0.93;;
4391;SDS011;2210;51.938;8.488;2023-04-03T16:13:47;2.23;;;0.97;;
4391;SDS011;2210;51.938;8.488;2023-04-03T16:17:48;1.13;;;0.90;;
4391;SDS011;2210;51.938;8.488;2023-04-03T16:21:54;1.10;;;0.80;;
4391;SDS011;2210;51.938;8.488;2023-04-03T16:25:55;1.00;;;0.77;;
4391;SDS011;2210;51.938;8.488;2023-04-03T16:29:55;1.10;;;1.00;;
4391;SDS011;2210;51.938;8.488;2023-04-03T16:33:58;1.10;;;1.00;;
4391;SDS011;2210;51.938;8.488;2023-04-03T16:38:03;2.10;;;1.27;;
4391;SDS011;2210;51.938;8.488;2023-04-03T16:42:03;1.70;;;1.10;;
4391;SDS011;2210;51.938;8.488;2023-04-03T16:46:04;2.83;;;0.90;;
4391;SDS011;2210;51.938;8.488;2023-04-03T16:50:04;0.90;;;0.80;;
4391;SDS011;2210;51.938;8.488;2023-04-03T16:54:05;2.10;;;1.03;;
4391;SDS011;2210;51.938;8.488;2023-04-03T16:58:06;5.57;;;1.03;;
4391;SDS011;2210;51.938;8.488;2023-04-03T17:02:09;0.83;;;0.80;;
4391;SDS011;2210;51.938;8.488;2023-04-03T17:06:10;1.13;;;1.00;;
4391;SDS011;2210;51.938;8.488;2023-04-03T17:10:16;1.83;;;0.90;;
4391;SDS011;2210;51.938;8.488;2023-04-03T17:14:19;1.27;;;1.17;;
4391;SDS011;2210;51.938;8.488;2023-04-03T17:18:19;1.10;;;1.10;;
4391;SDS011;2210;51.938;8.488;2023-04-03T17:22:20;1.47;;;1.00;;
4391;SDS011;2210;51.938;8.488;2023-04-03T17:26:26;3.70;;;1.83;;
4391;SDS011;2210;51.938;8.488;2023-04-03T17:30:36;1.23;;;1.03;;
4391;SDS011;2210;51.938;8.488;2023-04-03T17:34:36;2.27;;;1.20;;
4391;SDS011;2210;51.938;8.488;2023-04-03T17:38:39;1.93;;;1.20;;
4391;SDS011;2210;51.938;8.488;2023-04-03T17:42:46;2.27;;;0.90;;
4391;SDS011;2210;51.938;8.488;2023-04-03T17:46:46;2.37;;;1.20;;
4391;SDS011;2210;51.938;8.488;2023-04-03T17:50:47;2.40;;;1.13;;
4391;SDS011;2210;51.938;8.488;2023-04-03T17:54:47;2.03;;;1.43;;
4391;SDS011;2210;51.938;8.488;2023-04-03T17:58:47;1.17;;;1.05;;
4391;SDS011;2210;51.938;8.488;2023-04-03T18:02:55;1.80;;;1.20;;
4391;SDS011;2210;51.938;8.488;2023-04-03T18:06:55;1.67;;;1.00;;
4391;SDS011;2210;51.938;8.488;2023-04-03T18:10:55;2.43;;;0.93;;
4391;SDS011;2210;51.938;8.488;2023-04-03T18:14:56;1.33;;;1.10;;
4391;SDS011;2210;51.938;8.488;2023-04-03T18:18:58;3.50;;;1.40;;
4391;SDS011;2210;51.938;8.488;2023-04-03T18:22:58;1.87;;;1.30;;
4391;SDS011;2210;51.938;8.488;2023-04-03T18:26:59;2.83;;;1.20;;
4391;SDS011;2210;51.938;8.488;2023-04-03T18:31:08;0.97;;;0.87;;
4391;SDS011;2210;51.938;8.488;2023-04-03T18:35:14;1.77;;;1.60;;
4391;SDS011;2210;51.938;8.488;2023-04-03T18:39:21;2.30;;;1.20;;
4391;SDS011;2210;51.938;8.488;2023-04-03T18:43:30;0.80;;;0.80;;
4391;SDS011;2210;51.938;8.488;2023-04-03T18:47:33;2.33;;;1.10;;
4391;SDS011;2210;51.938;8.488;2023-04-03T18:51:38;1.40;;;1.20;;
4391;SDS011;2210;51.938;8.488;2023-04-03T18:55:39;0.97;;;0.90;;
4391;SDS011;2210;51.938;8.488;2023-04-03T18:59:39;2.10;;;1.10;;
4391;SDS011;2210;51.938;8.488;2023-04-03T19:03:43;1.57;;;1.20;;
4391;SDS011;2210;51.938;8.488;2023-04-03T19:07:43;1.10;;;1.00;;
4391;SDS011;2210;51.938;8.488;2023-04-03T19:11:44;2.10;;;0.93;;
4391;SDS011;2210;51.938;8.488;2023-04-03T19:15:45;1.80;;;1.10;;
4391;SDS011;2210;51.938;8.488;2023-04-03T19:19:46;2.47;;;1.50;;
4391;SDS011;2210;51.938;8.488;2023-04-03T19:23:46;5.00;;;2.80;;
4391;SDS011;2210;51.938;8.488;2023-04-03T19:27:47;3.63;;;3.00;;
4391;SDS011;2210;51.938;8.488;2023-04-03T19:31:48;3.17;;;2.70;;
4391;SDS011;2210;51.938;8.488;2023-04-03T19:35:49;4.13;;;2.43;;
4391;SDS011;2210;51.938;8.488;2023-04-03T19:39:52;3.00;;;1.80;;
4391;SDS011;2210;51.938;8.488;2023-04-03T19:43:53;3.10;;;1.50;;
4391;SDS011;2210;51.938;8.488;2023-04-03T19:47:55;1.43;;;1.33;;
4391;SDS011;2210;51.938;8.488;2023-04-03T19:52:00;1.53;;;1.20;;
4391;SDS011;2210;51.938;8.488;2023-04-03T19:56:07;1.40;;;1.30;;
4391;SDS011;2210;51.938;8.488;2023-04-03T20:00:07;3.37;;;1.07;;
4391;SDS011;2210;51.938;8.488;2023-04-03T20:04:08;1.87;;;1.73;;
4391;SDS011;2210;51.938;8.488;2023-04-03T20:08:08;2.15;;;1.58;;
4391;SDS011;2210;51.938;8.488;2023-04-03T20:12:11;1.23;;;1.13;;
4391;SDS011;2210;51.938;8.488;2023-04-03T20:16:12;2.10;;;1.47;;
4391;SDS011;2210;51.938;8.488;2023-04-03T20:20:12;1.63;;;1.30;;
4391;SDS011;2210;51.938;8.488;2023-04-03T20:24:13;1.73;;;1.37;;
4391;SDS011;2210;51.938;8.488;2023-04-03T20:28:14;2.40;;;1.40;;
4391;SDS011;2210;51.938;8.488;2023-04-03T20:32:14;1.33;;;1.23;;
4391;SDS011;2210;51.938;8.488;2023-04-03T20:36:19;1.43;;;1.27;;
4391;SDS011;2210;51.938;8.488;2023-04-03T20:40:26;1.47;;;1.20;;
4391;SDS011;2210;51.938;8.488;2023-04-03T20:44:29;2.67;;;1.20;;
4391;SDS011;2210;51.938;8.488;2023-04-03T20:48:30;1.50;;;1.40;;
4391;SDS011;2210;51.938;8.488;2023-04-03T20:52:31;1.73;;;1.63;;
4391;SDS011;2210;51.938;8.488;2023-04-03T20:56:31;2.97;;;1.80;;
4391;SDS011;2210;51.938;8.488;2023-04-03T21:00:32;2.17;;;1.90;;
4391;SDS011;2210;51.938;8.488;2023-04-03T21:04:35;3.63;;;1.90;;
4391;SDS011;2210;51.938;8.488;2023-04-03T21:22:07;2.63;;;1.37;;
4391;SDS011;2210;51.938;8.488;2023-04-03T21:26:07;2.60;;;1.27;;
4391;SDS011;2210;51.938;8.488;2023-04-03T21:30:11;1.63;;;1.53;;
4391;SDS011;2210;51.938;8.488;2023-04-03T21:34:12;2.40;;;1.57;;
4391;SDS011;2210;51.938;8.488;2023-04-03T21:38:14;4.63;;;1.53;;
4391;SDS011;2210;51.938;8.488;2023-04-03T21:42:17;1.58;;;1.48;;
4391;SDS011;2210;51.938;8.488;2023-04-03T21:46:21;2.27;;;1.57;;
4391;SDS011;2210;51.938;8.488;2023-04-03T21:50:24;2.67;;;1.57;;
4391;SDS011;2210;51.938;8.488;2023-04-03T21:54:24;1.73;;;1.63;;
4391;SDS011;2210;51.938;8.488;2023-04-03T21:58:34;1.83;;;1.70;;
4391;SDS011;2210;51.938;8.488;2023-04-03T22:02:38;1.70;;;1.30;;
4391;SDS011;2210;51.938;8.488;2023-04-03T22:06:39;1.83;;;1.40;;
4391;SDS011;2210;51.938;8.488;2023-04-03T22:10:40;2.50;;;1.77;;
4391;SDS011;2210;51.938;8.488;2023-04-03T22:14:41;1.73;;;1.50;;
4391;SDS011;2210;51.938;8.488;2023-04-03T22:18:44;1.67;;;1.47;;
4391;SDS011;2210;51.938;8.488;2023-04-03T22:22:44;1.47;;;1.37;;
4391;SDS011;2210;51.938;8.488;2023-04-03T22:26:45;1.60;;;1.40;;
4391;SDS011;2210;51.938;8.488;2023-04-03T22:30:46;1.67;;;1.20;;
4391;SDS011;2210;51.938;8.488;2023-04-03T22:34:49;2.85;;;1.45;;
4391;SDS011;2210;51.938;8.488;2023-04-03T22:38:55;1.40;;;1.30;;
4391;SDS011;2210;51.938;8.488;2023-04-03T22:42:56;1.90;;;1.40;;
4391;SDS011;2210;51.938;8.488;2023-04-03T22:46:56;4.20;;;2.15;;
4391;SDS011;2210;51.938;8.488;2023-04-03T22:51:03;2.53;;;1.90;;
4391;SDS011;2210;51.938;8.488;2023-04-03T22:55:26;1.67;;;1.43;;
4391;SDS011;2210;51.938;8.488;2023-04-03T22:59:32;1.63;;;1.53;;
4391;SDS011;2210;51.938;8.488;2023-04-03T23:03:33;1.77;;;1.37;;
4391;SDS011;2210;51.938;8.488;2023-04-03T23:07:34;3.57;;;1.60;;
4391;SDS011;2210;51.938;8.488;2023-04-03T23:11:37;1.73;;;1.20;;
4391;SDS011;2210;51.938;8.488;2023-04-03T23:15:37;1.70;;;1.10;;
4391;SDS011;2210;51.938;8.488;2023-04-03T23:19:37;2.10;;;1.90;;
4391;SDS011;2210;51.938;8.488;2023-04-03T23:23:41;2.27;;;2.07;;
4391;SDS011;2210;51.938;8.488;2023-04-03T23:27:41;3.40;;;2.30;;
4391;SDS011;2210;51.938;8.488;2023-04-03T23:31:41;1.80;;;1.70;;
4391;SDS011;2210;51.938;8.488;2023-04-03T23:35:42;2.95;;;1.83;;
4391;SDS011;2210;51.938;8.488;2023-04-03T23:39:47;2.27;;;1.90;;
4391;SDS011;2210;51.938;8.488;2023-04-03T23:43:47;3.60;;;1.80;;
4391;SDS011;2210;51.938;8.488;2023-04-03T23:47:48;1.77;;;1.67;;
4391;SDS011;2210;51.938;8.488;2023-04-03T23:51:48;2.17;;;1.70;;
4391;SDS011;2210;51.938;8.488;2023-04-03T23:55:48;2.47;;;1.60;;
4391;SDS011;2210;51.938;8.488;2023-04-03T23:59:49;2.43;;;1.80;;
